createdAt,value
2019-06-01T00:00:25.388Z,73.83
2019-06-01T00:02:56.395Z,73.66
2019-06-01T00:05:22.957Z,73.33
2019-06-01T00:07:49.714Z,72.88
2019-06-01T00:10:16.133Z,72.43
2019-06-01T00:12:43.498Z,71.57
2019-06-01T00:15:10.124Z,71.42
2019-06-01T00:17:36.567Z,71.23
2019-06-01T00:20:06.300Z,70.84
2019-06-01T00:22:32.633Z,70.62
2019-06-01T00:24:59.287Z,70.29
2019-06-01T00:27:25.744Z,70.10
2019-06-01T00:29:53.195Z,70.64
2019-06-01T00:32:19.613Z,70.86
2019-06-01T00:34:46.086Z,70.95
2019-06-01T00:37:13.535Z,70.76
2019-06-01T00:39:39.867Z,71.12
2019-06-01T00:42:06.203Z,71.27
2019-06-01T00:44:32.560Z,71.23
2019-06-01T00:46:58.899Z,71.17
2019-06-01T00:49:25.219Z,70.86
2019-06-01T00:51:53.759Z,70.96
2019-06-01T00:54:20.342Z,71.25
2019-06-01T00:56:47.416Z,71.75
2019-06-01T00:59:13.829Z,71.40
2019-06-01T01:01:40.497Z,71.37
2019-06-01T01:04:06.843Z,71.43
2019-06-01T01:06:33.194Z,71.09
2019-06-01T01:08:59.498Z,70.86
2019-06-01T01:11:26.253Z,70.69
2019-06-01T01:13:53.557Z,70.63
2019-06-01T01:16:21.476Z,70.49
2019-06-01T01:18:47.862Z,70.54
2019-06-01T01:21:14.177Z,70.59
2019-06-01T01:23:40.560Z,70.76
2019-06-01T01:26:06.892Z,70.52
2019-06-01T01:28:33.223Z,70.11
2019-06-01T01:31:12.407Z,69.95
2019-06-01T01:33:27.777Z,69.91
2019-06-01T01:35:54.218Z,69.34
2019-06-01T01:38:20.635Z,68.77
2019-06-01T01:40:47.946Z,68.89
2019-06-01T01:43:14.476Z,68.44
2019-06-01T01:45:41.438Z,68.39
2019-06-01T01:48:07.762Z,68.69
2019-06-01T01:50:34.149Z,69.21
2019-06-01T01:53:00.554Z,69.51
2019-06-01T01:55:26.886Z,69.62
2019-06-01T01:57:53.349Z,69.61
2019-06-01T02:00:34.272Z,69.63
2019-06-01T02:03:02.176Z,69.28
2019-06-01T02:05:28.728Z,69.42
2019-06-01T02:07:55.094Z,69.55
2019-06-01T02:10:21.885Z,69.83
2019-06-01T02:12:48.229Z,68.98
2019-06-01T02:15:17.191Z,68.86
2019-06-01T02:17:43.541Z,68.82
2019-06-01T02:20:10.125Z,68.61
2019-06-01T02:22:36.439Z,68.56
2019-06-01T02:25:04.576Z,68.80
2019-06-01T02:27:30.892Z,68.83
2019-06-01T02:29:57.530Z,68.66
2019-06-01T02:32:23.897Z,68.34
2019-06-01T02:34:50.213Z,68.54
2019-06-01T02:37:16.538Z,68.00
2019-06-01T02:39:43.146Z,67.43
2019-06-01T02:42:11.513Z,66.92
2019-06-01T02:44:37.887Z,66.87
2019-06-01T02:47:06.203Z,67.82
2019-06-01T02:49:32.477Z,67.68
2019-06-01T02:51:59.315Z,67.33
2019-06-01T02:54:25.817Z,67.67
2019-06-01T02:56:52.146Z,67.24
2019-06-01T02:59:18.503Z,67.36
2019-06-01T03:01:56.671Z,67.32
2019-06-01T03:04:13.987Z,67.44
2019-06-01T03:06:42.416Z,67.19
2019-06-01T03:09:09.660Z,66.71
2019-06-01T03:11:38.256Z,66.65
2019-06-01T03:14:08.802Z,67.15
2019-06-01T03:16:41.507Z,67.32
2019-06-01T03:19:08.128Z,67.01
2019-06-01T03:21:35.355Z,66.23
2019-06-01T03:24:10.254Z,66.44
2019-06-01T03:26:41.051Z,66.64
2019-06-01T03:29:12.583Z,66.69
2019-06-01T03:31:39.112Z,66.42
2019-06-01T03:34:06.881Z,66.46
2019-06-01T03:36:33.668Z,66.42
2019-06-01T03:39:02.085Z,66.15
2019-06-01T03:41:30.495Z,66.49
2019-06-01T03:43:57.143Z,66.52
2019-06-01T03:46:23.620Z,66.53
2019-06-01T03:48:51.180Z,66.35
2019-06-01T03:51:17.531Z,66.04
2019-06-01T03:53:43.872Z,65.18
2019-06-01T03:56:11.092Z,64.78
2019-06-01T03:58:37.589Z,64.57
2019-06-01T04:01:05.233Z,63.88
2019-06-01T04:03:31.645Z,63.15
2019-06-01T04:05:57.945Z,62.60
2019-06-01T04:08:24.268Z,62.58
2019-06-01T04:10:50.621Z,62.69
2019-06-01T04:13:17.005Z,62.76
2019-06-01T04:15:43.430Z,62.82
2019-06-01T04:18:10.264Z,62.67
2019-06-01T04:20:36.729Z,61.72
2019-06-01T04:23:04.581Z,60.73
2019-06-01T04:25:31.908Z,61.09
2019-06-01T04:27:58.441Z,61.12
2019-06-01T04:30:25.810Z,60.97
2019-06-01T04:32:52.175Z,60.83
2019-06-01T04:35:18.532Z,60.80
2019-06-01T04:37:45.256Z,61.45
2019-06-01T04:40:11.601Z,61.27
2019-06-01T04:42:37.940Z,61.31
2019-06-01T04:45:09.025Z,60.82
2019-06-01T04:47:35.495Z,60.18
2019-06-01T04:50:04.673Z,59.71
2019-06-01T04:52:37.044Z,58.82
2019-06-01T04:55:11.106Z,58.04
2019-06-01T04:57:38.926Z,58.30
2019-06-01T05:00:15.564Z,58.27
2019-06-01T05:02:34.533Z,57.65
2019-06-01T05:05:01.157Z,58.07
2019-06-01T05:07:27.492Z,57.61
2019-06-01T05:09:53.814Z,56.93
2019-06-01T05:12:23.975Z,56.63
2019-06-01T05:14:50.294Z,56.53
2019-06-01T05:17:16.869Z,56.33
2019-06-01T05:19:43.391Z,55.78
2019-06-01T05:22:10.499Z,54.61
2019-06-01T05:24:36.955Z,54.02
2019-06-01T05:27:03.283Z,54.19
2019-06-01T05:29:29.644Z,53.57
2019-06-01T05:31:56.018Z,53.18
2019-06-01T05:34:22.352Z,52.83
2019-06-01T05:36:48.785Z,52.48
2019-06-01T05:39:16.315Z,52.80
2019-06-01T05:41:42.926Z,51.65
2019-06-01T05:44:11.130Z,51.20
2019-06-01T05:46:38.051Z,50.11
2019-06-01T05:49:04.429Z,49.49
2019-06-01T05:51:30.785Z,49.89
2019-06-01T05:53:57.113Z,49.76
2019-06-01T05:56:23.758Z,49.41
2019-06-01T05:58:51.152Z,50.14
2019-06-01T06:01:19.663Z,49.33
2019-06-01T06:03:45.758Z,49.66
2019-06-01T06:06:12.051Z,49.40
2019-06-01T06:08:38.450Z,48.80
2019-06-01T06:11:05.122Z,48.79
2019-06-01T06:13:31.481Z,48.57
2019-06-01T06:15:57.970Z,47.79
2019-06-01T06:18:24.366Z,47.71
2019-06-01T06:20:50.753Z,47.54
2019-06-01T06:23:18.486Z,46.60
2019-06-01T06:25:44.919Z,46.78
2019-06-01T06:28:12.573Z,46.78
2019-06-01T06:30:38.950Z,46.35
2019-06-01T06:33:05.320Z,46.69
2019-06-01T06:35:31.653Z,45.63
2019-06-01T06:37:58.006Z,45.59
2019-06-01T06:40:24.682Z,45.38
2019-06-01T06:42:51.003Z,44.55
2019-06-01T06:45:45.502Z,44.49
2019-06-01T06:48:11.868Z,44.03
2019-06-01T06:50:38.194Z,44.21
2019-06-01T06:53:04.518Z,43.97
2019-06-01T06:55:30.849Z,43.35
2019-06-01T06:57:57.239Z,44.06
2019-06-01T07:00:25.039Z,43.57
2019-06-01T07:02:51.529Z,43.84
2019-06-01T07:05:19.198Z,43.36
2019-06-01T07:07:45.793Z,43.68
2019-06-01T07:10:12.418Z,44.28
2019-06-01T07:12:38.824Z,43.87
2019-06-01T07:15:05.441Z,43.50
2019-06-01T07:17:31.931Z,43.81
2019-06-01T07:19:58.872Z,43.33
2019-06-01T07:22:32.117Z,43.62
2019-06-01T07:25:06.539Z,42.00
2019-06-01T07:27:32.854Z,41.86
2019-06-01T07:29:59.177Z,41.67
2019-06-01T07:32:26.682Z,41.17
2019-06-01T07:34:53.516Z,41.42
2019-06-01T07:37:20.636Z,40.40
2019-06-01T07:39:47.221Z,39.94
2019-06-01T07:42:13.581Z,38.81
2019-06-01T07:44:39.910Z,39.04
2019-06-01T07:47:06.298Z,37.90
2019-06-01T07:49:32.682Z,37.50
2019-06-01T07:52:11.157Z,36.70
2019-06-01T07:54:28.506Z,36.86
2019-06-01T07:56:54.918Z,37.91
2019-06-01T07:59:21.523Z,38.01
2019-06-01T08:01:49.110Z,37.56
2019-06-01T08:04:15.467Z,37.88
2019-06-01T08:06:46.123Z,39.12
2019-06-01T08:09:10.026Z,39.15
2019-06-01T08:11:36.353Z,39.49
2019-06-01T08:14:02.988Z,39.97
2019-06-01T08:16:29.952Z,39.58
2019-06-01T08:18:56.385Z,39.17
2019-06-01T08:21:23.892Z,40.09
2019-06-01T08:24:06.241Z,41.04
2019-06-01T08:26:32.760Z,40.53
2019-06-01T08:28:59.604Z,42.04
2019-06-01T08:31:26.642Z,41.25
2019-06-01T08:33:53.041Z,42.30
2019-06-01T08:36:25.683Z,41.59
2019-06-01T08:38:52.008Z,40.93
2019-06-01T08:41:18.487Z,39.39
2019-06-01T08:43:44.804Z,37.52
2019-06-01T08:46:11.292Z,35.94
2019-06-01T08:48:37.706Z,35.80
2019-06-01T08:51:03.998Z,39.23
2019-06-01T08:53:30.626Z,39.36
2019-06-01T08:55:56.965Z,38.71
2019-06-01T08:58:24.182Z,39.71
2019-06-01T09:00:50.817Z,38.81
2019-06-01T09:03:17.117Z,38.21
2019-06-01T09:05:43.460Z,38.36
2019-06-01T09:08:09.773Z,37.21
2019-06-01T09:10:36.131Z,37.33
2019-06-01T09:13:02.568Z,37.33
2019-06-01T09:15:29.757Z,37.77
2019-06-01T09:17:56.285Z,37.11
2019-06-01T09:20:22.637Z,37.57
2019-06-01T09:22:48.981Z,38.63
2019-06-01T09:25:15.417Z,37.98
2019-06-01T09:27:41.747Z,37.40
2019-06-01T09:30:08.859Z,38.45
2019-06-01T09:32:36.507Z,37.35
2019-06-01T09:35:04.776Z,37.71
2019-06-01T09:37:48.614Z,36.72
2019-06-01T09:40:15.215Z,36.63
2019-06-01T09:42:41.543Z,36.60
2019-06-01T09:45:09.100Z,36.49
2019-06-01T09:47:35.674Z,37.74
2019-06-01T09:50:03.437Z,36.02
2019-06-01T09:52:29.914Z,37.34
2019-06-01T09:54:56.280Z,37.25
2019-06-01T09:57:22.605Z,35.75
2019-06-01T09:59:48.984Z,36.63
2019-06-01T10:02:15.469Z,35.58
2019-06-01T10:04:43.231Z,37.11
2019-06-01T10:07:09.747Z,37.30
2019-06-01T10:09:36.186Z,38.22
2019-06-01T10:12:03.450Z,37.68
2019-06-01T10:14:30.093Z,36.70
2019-06-01T10:16:56.661Z,37.51
2019-06-01T10:19:23.139Z,38.14
2019-06-01T10:21:49.605Z,36.89
2019-06-01T10:24:17.436Z,35.93
2019-06-01T10:26:43.793Z,35.31
2019-06-01T10:29:10.162Z,35.95
2019-06-01T10:31:41.088Z,35.24
2019-06-01T10:34:05.947Z,35.04
2019-06-01T10:36:32.264Z,34.91
2019-06-01T10:38:58.630Z,35.21
2019-06-01T10:41:24.980Z,34.67
2019-06-01T10:43:52.451Z,34.37
2019-06-01T10:46:19.460Z,34.89
2019-06-01T10:48:45.846Z,34.91
2019-06-01T10:51:12.209Z,34.06
2019-06-01T10:53:38.541Z,34.34
2019-06-01T10:56:04.885Z,34.75
2019-06-01T10:58:32.253Z,34.24
2019-06-01T11:00:58.728Z,33.87
2019-06-01T11:03:25.078Z,34.71
2019-06-01T11:05:51.392Z,35.11
2019-06-01T11:08:25.039Z,34.04
2019-06-01T11:10:51.373Z,34.56
2019-06-01T11:13:17.780Z,32.65
2019-06-01T11:15:48.186Z,31.67
2019-06-01T11:18:16.441Z,31.08
2019-06-01T11:20:43.726Z,30.61
2019-06-01T11:23:10.279Z,32.06
2019-06-01T11:25:37.591Z,32.59
2019-06-01T11:28:04.079Z,32.57
2019-06-01T11:30:33.741Z,31.85
2019-06-01T11:33:00.114Z,31.17
2019-06-01T11:35:26.452Z,31.37
2019-06-01T11:37:52.855Z,30.99
2019-06-01T11:40:19.203Z,30.51
2019-06-01T11:42:45.590Z,31.00
2019-06-01T11:45:12.120Z,30.32
2019-06-01T11:47:38.948Z,30.57
2019-06-01T11:50:08.365Z,30.53
2019-06-01T11:52:35.007Z,30.97
2019-06-01T11:55:02.252Z,28.56
2019-06-01T11:57:28.636Z,27.01
2019-06-01T11:59:58.095Z,25.50
2019-06-01T12:02:24.692Z,23.96
2019-06-01T12:04:51.030Z,22.35
2019-06-01T12:07:18.473Z,21.14
2019-06-01T12:09:46.075Z,19.71
2019-06-01T12:12:12.543Z,18.54
2019-06-01T12:14:40.238Z,20.97
2019-06-01T12:17:06.737Z,19.49
2019-06-01T12:19:33.414Z,18.73
2019-06-01T12:21:59.717Z,19.13
2019-06-01T12:24:27.136Z,20.55
2019-06-01T12:26:53.858Z,22.48
2019-06-01T12:29:20.174Z,26.29
2019-06-01T12:31:48.164Z,27.85
2019-06-01T12:34:15.578Z,28.99
2019-06-01T12:36:42.666Z,29.80
2019-06-01T12:39:09.276Z,28.62
2019-06-01T12:41:35.592Z,29.43
2019-06-01T12:44:07.862Z,29.83
2019-06-01T12:46:34.454Z,30.25
2019-06-01T12:49:00.941Z,29.87
2019-06-01T12:51:27.313Z,29.53
2019-06-01T12:53:54.974Z,29.94
2019-06-01T12:56:21.261Z,29.50
2019-06-01T12:58:48.228Z,29.03
2019-06-01T13:01:14.703Z,28.08
2019-06-01T13:03:41.195Z,27.93
2019-06-01T13:06:07.605Z,28.31
2019-06-01T13:08:34.120Z,27.25
2019-06-01T13:11:00.544Z,27.25
2019-06-01T13:13:26.886Z,27.43
2019-06-01T13:15:53.692Z,26.91
2019-06-01T13:18:20.862Z,27.44
2019-06-01T13:20:47.699Z,27.05
2019-06-01T13:23:14.237Z,26.64
2019-06-01T13:25:41.440Z,27.38
2019-06-01T13:28:07.940Z,26.26
2019-06-01T13:30:34.651Z,27.57
2019-06-01T13:33:00.993Z,28.12
2019-06-01T13:35:27.340Z,27.76
2019-06-01T13:38:10.896Z,27.83
2019-06-01T13:40:22.037Z,27.64
2019-06-01T13:42:49.104Z,27.09
2019-06-01T13:45:16.511Z,25.88
2019-06-01T13:47:43.390Z,26.61
2019-06-01T13:50:10.613Z,27.18
2019-06-01T13:52:37.042Z,26.32
2019-06-01T13:55:05.284Z,25.97
2019-06-01T13:57:31.708Z,26.53
2019-06-01T13:59:58.177Z,26.28
2019-06-01T14:02:24.608Z,26.21
2019-06-01T14:04:52.146Z,26.88
2019-06-01T14:07:19.151Z,27.95
2019-06-01T14:09:45.522Z,22.07
2019-06-01T14:12:11.919Z,16.96
2019-06-01T14:14:38.246Z,15.14
2019-06-01T14:17:04.562Z,14.04
2019-06-01T14:19:30.954Z,13.14
2019-06-01T14:21:57.323Z,11.79
2019-06-01T14:24:23.664Z,13.51
2019-06-01T14:26:50.142Z,13.13
2019-06-01T14:29:16.848Z,12.78
2019-06-01T14:31:43.176Z,12.60
2019-06-01T14:34:15.430Z,13.66
2019-06-01T14:36:48.543Z,13.58
2019-06-01T14:39:15.138Z,12.72
2019-06-01T14:41:42.137Z,13.48
2019-06-01T14:44:08.511Z,14.06
2019-06-01T14:46:34.853Z,13.38
2019-06-01T14:49:01.250Z,12.85
2019-06-01T14:51:27.619Z,13.02
2019-06-01T14:53:55.796Z,12.40
2019-06-01T14:56:22.354Z,14.38
2019-06-01T14:58:49.815Z,17.34
2019-06-01T15:01:31.494Z,13.89
2019-06-01T15:03:44.622Z,12.37
2019-06-01T15:06:10.970Z,11.14
2019-06-01T15:08:37.696Z,11.60
2019-06-01T15:11:04.025Z,13.95
2019-06-01T15:13:30.476Z,13.18
2019-06-01T15:15:57.654Z,12.88
2019-06-01T15:18:24.027Z,12.32
2019-06-01T15:20:51.682Z,12.29
2019-06-01T15:23:18.163Z,13.09
2019-06-01T15:25:44.565Z,12.30
2019-06-01T15:28:10.878Z,11.31
2019-06-01T15:30:37.233Z,12.94
2019-06-01T15:33:04.651Z,13.44
2019-06-01T15:35:31.300Z,13.65
2019-06-01T15:38:01.457Z,14.28
2019-06-01T15:40:25.876Z,15.29
2019-06-01T15:42:53.528Z,16.24
2019-06-01T15:45:20.149Z,15.74
2019-06-01T15:47:46.470Z,15.98
2019-06-01T15:50:13.423Z,16.24
2019-06-01T15:52:39.736Z,14.87
2019-06-01T15:55:13.496Z,15.88
2019-06-01T15:57:40.225Z,15.19
2019-06-01T16:00:08.337Z,14.59
2019-06-01T16:02:34.730Z,14.57
2019-06-01T16:05:01.452Z,13.90
2019-06-01T16:07:28.284Z,13.26
2019-06-01T16:09:55.387Z,14.28
2019-06-01T16:12:21.852Z,14.91
2019-06-01T16:14:48.215Z,14.68
2019-06-01T16:17:14.533Z,12.79
2019-06-01T16:19:40.976Z,13.76
2019-06-01T16:22:07.294Z,14.48
2019-06-01T16:24:34.774Z,14.47
2019-06-01T16:27:01.131Z,15.11
2019-06-01T16:29:27.873Z,14.13
2019-06-01T16:31:54.670Z,13.57
2019-06-01T16:34:21.058Z,14.63
2019-06-01T16:36:47.763Z,16.08
2019-06-01T16:39:14.421Z,15.83
2019-06-01T16:41:40.911Z,15.92
2019-06-01T16:44:07.227Z,15.66
2019-06-01T16:50:28.801Z,15.90
2019-06-01T16:52:55.861Z,16.07
2019-06-01T16:55:22.348Z,15.69
2019-06-01T16:57:48.705Z,15.31
2019-06-01T17:00:16.029Z,17.09
2019-06-01T17:02:42.475Z,16.63
2019-06-01T17:05:10.714Z,16.05
2019-06-01T17:07:37.085Z,15.96
2019-06-01T17:10:21.623Z,16.61
2019-06-01T17:12:42.930Z,17.34
2019-06-01T17:15:07.132Z,16.65
2019-06-01T17:17:33.787Z,14.86
2019-06-01T17:20:01.153Z,15.91
2019-06-01T17:22:27.579Z,15.94
2019-06-01T17:24:54.439Z,15.79
2019-06-01T17:27:20.780Z,16.10
2019-06-01T17:29:47.118Z,15.68
2019-06-01T17:32:23.806Z,16.40
2019-06-01T17:34:41.671Z,17.64
2019-06-01T17:37:08.955Z,18.52
2019-06-01T17:39:35.425Z,18.16
2019-06-01T17:42:02.451Z,18.34
2019-06-01T17:44:29.164Z,18.34
2019-06-01T17:46:55.511Z,17.87
2019-06-01T17:49:21.842Z,18.04
2019-06-01T17:51:48.203Z,18.17
2019-06-01T17:54:14.541Z,17.73
2019-06-01T17:56:41.272Z,17.89
2019-06-01T17:59:07.606Z,19.12
2019-06-01T18:01:33.921Z,20.31
2019-06-01T18:04:01.698Z,20.33
2019-06-01T18:06:28.498Z,22.11
2019-06-01T18:08:55.252Z,21.87
2019-06-01T18:11:21.603Z,21.57
2019-06-01T18:13:48.418Z,20.20
2019-06-01T18:16:14.873Z,21.22
2019-06-01T18:18:42.302Z,22.63
2019-06-01T18:21:08.676Z,22.83
2019-06-01T18:23:35.192Z,24.87
2019-06-01T18:26:02.532Z,26.63
2019-06-01T18:28:29.076Z,28.74
2019-06-01T18:30:55.573Z,31.03
2019-06-01T18:33:22.031Z,31.87
2019-06-01T18:35:48.393Z,32.51
2019-06-01T18:38:14.963Z,33.16
2019-06-01T18:40:41.683Z,33.79
2019-06-01T18:43:14.137Z,33.77
2019-06-01T18:45:41.810Z,34.85
2019-06-01T18:52:14.782Z,37.85
2019-06-01T18:54:41.358Z,40.21
2019-06-01T18:57:19.322Z,40.57
2019-06-01T18:59:41.682Z,40.91
2019-06-01T19:02:08.435Z,41.16
2019-06-01T19:04:34.904Z,41.72
2019-06-01T19:07:01.394Z,42.10
2019-06-01T19:09:27.722Z,42.86
2019-06-01T19:11:54.077Z,43.50
2019-06-01T19:14:20.829Z,43.91
2019-06-01T19:16:48.506Z,43.82
2019-06-01T19:19:14.988Z,44.07
2019-06-01T19:21:59.575Z,44.55
2019-06-01T19:24:25.935Z,44.40
2019-06-01T19:26:52.316Z,44.91
2019-06-01T19:29:22.295Z,44.81
2019-06-01T19:31:49.366Z,44.91
2019-06-01T19:34:17.125Z,45.34
2019-06-01T19:36:45.147Z,45.69
2019-06-01T19:39:11.509Z,46.24
2019-06-01T19:41:44.760Z,46.75
2019-06-01T19:44:07.735Z,47.48
2019-06-01T19:46:34.302Z,47.87
2019-06-01T19:49:01.748Z,48.67
2019-06-01T19:51:28.082Z,49.22
2019-06-01T19:54:02.203Z,50.14
2019-06-01T19:56:28.648Z,50.94
2019-06-01T19:58:58.557Z,52.00
2019-06-01T20:01:25.275Z,52.60
2019-06-01T20:03:52.021Z,53.51
2019-06-01T20:06:18.931Z,54.00
2019-06-01T20:08:47.909Z,54.20
2019-06-01T20:11:15.105Z,54.78
2019-06-01T20:13:41.831Z,55.07
2019-06-01T20:16:08.224Z,55.13
2019-06-01T20:18:34.573Z,55.46
2019-06-01T20:21:01.338Z,55.50
2019-06-01T20:23:27.771Z,55.36
2019-06-01T20:25:54.107Z,55.45
2019-06-01T20:28:21.706Z,55.93
2019-06-01T20:30:48.458Z,56.10
2019-06-01T20:33:15.965Z,56.37
2019-06-01T20:35:43.691Z,57.03
2019-06-01T20:38:10.213Z,57.37
2019-06-01T20:40:36.593Z,57.72
2019-06-01T20:43:03.462Z,57.90
2019-06-01T20:45:35.382Z,57.94
2019-06-01T20:48:01.934Z,58.13
2019-06-01T20:50:32.342Z,58.46
2019-06-01T20:52:58.840Z,58.32
2019-06-01T20:55:25.509Z,58.46
2019-06-01T20:57:55.055Z,58.60
2019-06-01T21:00:21.768Z,58.86
2019-06-01T21:02:48.570Z,58.93
2019-06-01T21:05:15.840Z,59.26
2019-06-01T21:07:43.657Z,59.35
2019-06-01T21:10:10.897Z,59.37
2019-06-01T21:12:44.693Z,59.54
2019-06-01T21:15:07.104Z,59.69
2019-06-01T21:17:33.423Z,59.97
2019-06-01T21:20:04.370Z,60.03
2019-06-01T21:22:28.109Z,60.26
2019-06-01T21:24:54.461Z,60.26
2019-06-01T21:27:20.830Z,60.28
2019-06-01T21:29:47.193Z,60.09
2019-06-01T21:32:15.120Z,60.12
2019-06-01T21:34:41.733Z,59.92
2019-06-01T21:37:08.093Z,59.66
2019-06-01T21:39:34.726Z,59.56
2019-06-01T21:42:01.161Z,59.09
2019-06-01T21:44:27.522Z,58.84
2019-06-01T21:46:53.848Z,59.19
2019-06-01T21:49:20.575Z,59.43
2019-06-01T21:51:48.097Z,59.48
2019-06-01T21:54:14.425Z,59.60
2019-06-01T21:56:40.748Z,59.26
2019-06-01T21:59:07.101Z,59.42
2019-06-01T22:01:33.446Z,59.23
2019-06-01T22:04:00.087Z,58.95
2019-06-01T22:06:27.700Z,59.27
2019-06-01T22:08:54.246Z,59.39
2019-06-01T22:11:21.550Z,59.34
2019-06-01T22:13:48.302Z,59.37
2019-06-01T22:16:14.647Z,59.41
2019-06-01T22:18:40.975Z,59.46
2019-06-01T22:21:07.408Z,59.85
2019-06-01T22:23:33.756Z,59.81
2019-06-01T22:26:00.146Z,60.16
2019-06-01T22:28:26.484Z,59.85
2019-06-01T22:30:52.837Z,59.53
2019-06-01T22:33:20.123Z,59.41
2019-06-01T22:35:47.683Z,59.51
2019-06-01T22:38:14.043Z,59.32
2019-06-01T22:40:40.405Z,59.87
2019-06-01T22:43:06.737Z,60.56
2019-06-01T22:45:33.489Z,60.61
2019-06-01T22:48:00.201Z,60.57
2019-06-01T22:50:27.009Z,60.21
2019-06-01T22:52:53.802Z,60.10
2019-06-01T22:55:20.163Z,60.29
2019-06-01T22:57:46.592Z,60.42
2019-06-01T23:00:14.264Z,60.14
2019-06-01T23:02:40.946Z,60.94
2019-06-01T23:05:07.497Z,61.35
2019-06-01T23:07:33.832Z,61.18
2019-06-01T23:10:00.169Z,61.69
2019-06-01T23:12:27.618Z,61.45
2019-06-01T23:14:54.465Z,61.45
2019-06-01T23:17:21.526Z,61.26
2019-06-01T23:19:47.987Z,59.73
2019-06-01T23:22:14.373Z,60.38
2019-06-01T23:24:40.811Z,61.14
2019-06-01T23:27:07.196Z,61.38
2019-06-01T23:29:33.513Z,61.69
2019-06-01T23:31:59.869Z,62.38
2019-06-01T23:35:24.380Z,62.91
2019-06-01T23:37:50.831Z,63.21
2019-06-01T23:40:17.177Z,63.09
2019-06-01T23:42:43.909Z,62.96
2019-06-01T23:45:10.997Z,62.76
2019-06-01T23:47:37.358Z,63.52
2019-06-01T23:50:05.490Z,63.33
2019-06-01T23:52:31.897Z,63.03
2019-06-01T23:54:58.222Z,63.54
2019-06-01T23:57:25.486Z,64.19
2019-06-01T23:59:52.053Z,63.98
